createdAt,value
2022-09-05T00:00:26.617Z,16.7
2022-09-05T00:02:30.645Z,16.6
2022-09-05T00:06:25.354Z,16.2
2022-09-05T00:08:30.551Z,16.1
2022-09-05T00:12:27.695Z,16
2022-09-05T00:20:40.791Z,15.8
2022-09-05T00:23:41.587Z,15.8
2022-09-05T00:24:23.818Z,15.8
2022-09-05T00:24:41.989Z,15.8
2022-09-05T00:26:29.471Z,15.6
2022-09-05T00:28:29.383Z,15.7
2022-09-05T00:31:08.521Z,15.8
2022-09-05T00:32:28.340Z,15.7
2022-09-05T00:36:28.136Z,15.6
2022-09-05T00:38:33.448Z,15.4
2022-09-05T00:42:27.693Z,15.5
2022-09-05T00:44:28.934Z,15.4
2022-09-05T00:48:29.070Z,15.4
2022-09-05T00:50:29.958Z,15.4
2022-09-05T00:54:26.370Z,15.2
2022-09-05T00:56:29.813Z,15.2
2022-09-05T00:58:30.459Z,15.1
2022-09-05T01:00:27.674Z,15
2022-09-05T01:02:32.064Z,14.9
2022-09-05T01:04:28.295Z,15
2022-09-05T01:06:25.862Z,14.9
2022-09-05T01:08:28.654Z,14.9
2022-09-05T01:12:25.376Z,14.9
2022-09-05T01:14:29.951Z,14.9
2022-09-05T01:16:32.056Z,14.8
2022-09-05T01:18:29.470Z,14.8
2022-09-05T01:20:31.542Z,15
2022-09-05T01:24:28.959Z,14.6
2022-09-05T01:26:29.343Z,14.5
2022-09-05T01:29:14.840Z,14.4
2022-09-05T01:30:31.703Z,14.4
2022-09-05T01:36:28.081Z,14.3
2022-09-05T01:42:27.113Z,14.6
2022-09-05T01:44:29.971Z,14.6
2022-09-05T01:46:32.130Z,14.3
2022-09-05T01:48:29.917Z,14.6
2022-09-05T01:50:29.830Z,14.4
2022-09-05T01:52:28.950Z,14.6
2022-09-05T01:54:28.799Z,14.6
2022-09-05T01:56:29.904Z,14.6
2022-09-05T01:58:29.919Z,14.6
2022-09-05T02:00:29.754Z,14.4
2022-09-05T02:02:32.533Z,14.4
2022-09-05T02:04:29.465Z,14.4
2022-09-05T02:06:29.090Z,14.3
2022-09-05T02:08:29.474Z,14.4
2022-09-05T02:10:30.071Z,14.4
2022-09-05T02:12:29.324Z,14.5
2022-09-05T02:16:32.465Z,14.3
2022-09-05T02:18:27.113Z,14.2
2022-09-05T02:20:30.065Z,14.4
2022-09-05T02:22:28.434Z,14.1
2022-09-05T02:24:28.983Z,14.1
2022-09-05T02:26:28.855Z,14.4
2022-09-05T02:30:28.395Z,14.2
2022-09-05T02:32:30.069Z,14.1
2022-09-05T02:34:29.793Z,13.9
2022-09-05T02:36:25.807Z,13.9
2022-09-05T02:43:58.781Z,13.9
2022-09-05T02:45:04.725Z,13.8
2022-09-05T02:45:15.491Z,13.9
2022-09-05T02:46:30.198Z,13.9
2022-09-05T02:48:27.647Z,13.9
2022-09-05T02:51:02.551Z,13.9
2022-09-05T02:57:31.257Z,13.7
2022-09-05T03:00:25.779Z,13.9
2022-09-05T03:04:28.564Z,13.8
2022-09-05T03:06:34.734Z,13.8
2022-09-05T03:12:31.888Z,13.8
2022-09-05T03:14:29.859Z,13.8
2022-09-05T03:16:29.645Z,13.7
2022-09-05T03:18:26.901Z,13.9
2022-09-05T03:20:30.049Z,14
2022-09-05T03:24:27.698Z,13.9
2022-09-05T03:26:28.835Z,13.9
2022-09-05T03:28:29.982Z,13.8
2022-09-05T03:30:29.481Z,13.9
2022-09-05T03:36:27.494Z,13.8
2022-09-05T03:38:30.776Z,13.7
2022-09-05T03:40:29.864Z,13.8
2022-09-05T03:42:30.856Z,13.8
2022-09-05T03:44:29.661Z,13.6
2022-09-05T03:46:29.638Z,13.6
2022-09-05T03:48:29.547Z,13.5
2022-09-05T03:52:26.091Z,13.5
2022-09-05T03:57:21.755Z,13.6
2022-09-05T03:57:21.926Z,13.5
2022-09-05T04:00:28.014Z,13.9
2022-09-05T04:02:52.617Z,14.1
2022-09-05T04:08:12.756Z,13.9
2022-09-05T04:10:30.015Z,13.5
2022-09-05T04:12:27.241Z,13.4
2022-09-05T04:16:29.838Z,13.3
2022-09-05T04:18:25.933Z,13.2
2022-09-05T04:20:29.939Z,13.2
2022-09-05T04:22:29.958Z,13.3
2022-09-05T04:24:27.818Z,13.5
2022-09-05T04:26:29.893Z,13.6
2022-09-05T04:30:39.185Z,13.6
2022-09-05T04:34:28.484Z,13.7
2022-09-05T04:36:26.789Z,13.5
2022-09-05T04:38:29.854Z,13.5
2022-09-05T04:40:33.266Z,13.4
2022-09-05T04:42:29.069Z,13.5
2022-09-05T04:46:30.143Z,13.7
2022-09-05T04:48:29.083Z,14
2022-09-05T04:50:35.207Z,14.2
2022-09-05T04:52:31.231Z,14.1
2022-09-05T04:54:30.162Z,14.2
2022-09-05T04:56:29.904Z,14.1
2022-09-05T04:58:36.470Z,14
2022-09-05T05:00:54.376Z,14.1
2022-09-05T05:06:06.190Z,14.1
2022-09-05T05:06:34.938Z,14.1
2022-09-05T05:08:38.576Z,14.2
2022-09-05T05:11:30.327Z,14.2
2022-09-05T05:17:02.405Z,14.2
2022-09-05T05:18:05.012Z,14.2
2022-09-05T05:18:06.004Z,14.2
2022-09-05T05:18:38.930Z,14.1
2022-09-05T05:20:40.914Z,14.1
2022-09-05T05:24:29.108Z,14.4
2022-09-05T05:26:30.006Z,14.3
2022-09-05T05:30:27.326Z,14.4
2022-09-05T05:34:30.016Z,14.6
2022-09-05T05:36:27.840Z,14.8
2022-09-05T05:38:29.957Z,14.8
2022-09-05T05:42:27.164Z,15
2022-09-05T05:46:30.172Z,15.3
2022-09-05T05:48:27.742Z,15.6
2022-09-05T05:52:29.984Z,15.6
2022-09-05T05:54:33.898Z,15.7
2022-09-05T05:58:29.333Z,15.8
2022-09-05T06:00:27.786Z,15.9
2022-09-05T06:02:30.336Z,16.1
2022-09-05T06:04:29.873Z,16.1
2022-09-05T06:06:29.565Z,16.3
2022-09-05T06:10:10.539Z,16.6
2022-09-05T06:12:09.680Z,16.6
2022-09-05T06:14:53.654Z,16.6
2022-09-05T06:15:03.328Z,16.8
2022-09-05T06:18:26.886Z,17
2022-09-05T06:24:29.864Z,18.5
2022-09-05T06:26:29.969Z,18.8
2022-09-05T06:28:29.765Z,18.9
2022-09-05T06:30:25.489Z,19.5
2022-09-05T06:32:29.380Z,20.1
2022-09-05T06:34:33.663Z,19.8
2022-09-05T06:36:29.757Z,19.4
2022-09-05T06:38:30.159Z,19.5
2022-09-05T06:42:43.145Z,20.1
2022-09-05T06:44:29.808Z,20.2
2022-09-05T06:48:44.924Z,20.3
2022-09-05T06:50:29.775Z,20.3
2022-09-05T06:52:30.315Z,20.4
2022-09-05T06:54:26.900Z,20.5
2022-09-05T06:56:29.959Z,20.5
2022-09-05T06:58:29.824Z,20.5
2022-09-05T07:00:25.506Z,20.5
2022-09-05T07:06:40.105Z,20.4
2022-09-05T07:10:38.237Z,20.6
2022-09-05T07:12:27.769Z,20.5
2022-09-05T07:14:29.952Z,20.6
2022-09-05T07:16:38.223Z,20.2
2022-09-05T07:18:28.382Z,20.2
2022-09-05T07:20:29.459Z,20.2
2022-09-05T07:22:46.787Z,20.4
2022-09-05T07:24:29.764Z,20.1
2022-09-05T07:26:48.013Z,20.2
2022-09-05T07:30:27.815Z,20.2
2022-09-05T07:32:28.898Z,20.1
2022-09-05T07:34:28.633Z,20.2
2022-09-05T07:36:26.516Z,20.3
2022-09-05T07:42:27.657Z,21
2022-09-05T07:44:28.509Z,21.2
2022-09-05T07:46:30.740Z,21.3
2022-09-05T07:48:29.720Z,21.3
2022-09-05T07:51:27.954Z,21.2
2022-09-05T07:56:57.336Z,21.1
2022-09-05T08:00:29.609Z,21.3
2022-09-05T08:02:29.860Z,21.5
2022-09-05T08:04:29.881Z,21.5
2022-09-05T08:06:35.948Z,21.6
2022-09-05T08:08:27.295Z,21.7
2022-09-05T08:10:31.274Z,21.9
2022-09-05T08:12:28.397Z,21.9
2022-09-05T08:14:43.301Z,21.9
2022-09-05T08:16:30.043Z,21.9
2022-09-05T08:18:30.547Z,21.8
2022-09-05T08:20:29.526Z,21.9
2022-09-05T08:22:29.882Z,22
2022-09-05T08:24:29.563Z,22
2022-09-05T08:26:29.954Z,22
2022-09-05T08:28:33.389Z,22.1
2022-09-05T08:30:28.133Z,22.2
2022-09-05T08:36:27.391Z,22.4
2022-09-05T08:40:29.552Z,22.4
2022-09-05T08:42:25.553Z,22.4
2022-09-05T08:46:38.327Z,22.4
2022-09-05T08:48:28.167Z,22.5
2022-09-05T08:50:28.501Z,22.5
2022-09-05T08:54:28.633Z,22.7
2022-09-05T08:58:29.981Z,22.7
2022-09-05T09:00:31.317Z,22.7
2022-09-05T09:05:00.652Z,22.6
2022-09-05T09:06:28.571Z,22.6
2022-09-05T09:10:29.888Z,22.6
2022-09-05T09:12:29.539Z,22.6
2022-09-05T09:14:30.695Z,22.5
2022-09-05T09:16:29.955Z,22.4
2022-09-05T09:18:27.401Z,22.2
2022-09-05T09:20:29.172Z,22.4
2022-09-05T09:22:29.808Z,22.6
2022-09-05T09:24:27.007Z,22.6
2022-09-05T09:30:27.235Z,22.9
2022-09-05T09:32:29.970Z,22.8
2022-09-05T09:36:28.040Z,23
2022-09-05T09:40:29.923Z,22.6
2022-09-05T09:42:32.936Z,22.7
2022-09-05T09:46:29.256Z,23
2022-09-05T09:48:27.415Z,23.1
2022-09-05T09:54:29.126Z,23.4
2022-09-05T10:00:26.939Z,22.9
2022-09-05T10:07:31.828Z,23.2
2022-09-05T10:10:37.433Z,23.3
2022-09-05T10:10:41.113Z,23.3
2022-09-05T10:16:30.475Z,23.2
2022-09-05T10:18:31.431Z,23.2
2022-09-05T10:20:29.999Z,23.3
2022-09-05T10:24:28.155Z,23.5
2022-09-05T10:28:30.190Z,23.6
2022-09-05T10:33:55.541Z,23.4
2022-09-05T10:35:05.373Z,23.5
2022-09-05T10:36:28.540Z,23.5
2022-09-05T10:40:29.622Z,23.6
2022-09-05T10:42:25.506Z,23.7
2022-09-05T10:44:29.601Z,23.7
2022-09-05T10:46:49.361Z,23.7
2022-09-05T10:48:29.580Z,23.7
2022-09-05T10:50:30.026Z,23.7
2022-09-05T10:54:29.572Z,23.7
2022-09-05T10:56:30.226Z,23.8
2022-09-05T11:01:31.047Z,23.7
2022-09-05T11:06:29.234Z,23.9
2022-09-05T11:08:30.411Z,24
2022-09-05T11:10:30.225Z,23.9
2022-09-05T11:12:25.499Z,23.9
2022-09-05T11:14:29.567Z,24.1
2022-09-05T11:16:30.313Z,23.9
2022-09-05T11:18:30.319Z,23.9
2022-09-05T11:22:29.506Z,24
2022-09-05T11:24:30.746Z,24
2022-09-05T11:26:30.273Z,23.9
2022-09-05T11:28:30.003Z,24
2022-09-05T11:30:29.685Z,24.1
2022-09-05T11:33:44.455Z,24.1
2022-09-05T11:40:01.059Z,24.2
2022-09-05T11:42:29.033Z,24.3
2022-09-05T11:46:30.652Z,24.3
2022-09-05T11:48:29.168Z,24.3
2022-09-05T11:50:29.969Z,24.3
2022-09-05T11:54:29.692Z,24.3
2022-09-05T11:58:44.432Z,24.3
2022-09-05T12:00:31.038Z,24.4
2022-09-05T12:04:31.416Z,24.4
2022-09-05T12:06:29.150Z,24.5
2022-09-05T12:08:30.366Z,24.5
2022-09-05T12:10:43.683Z,24.5
2022-09-05T12:12:27.118Z,24.5
2022-09-05T12:14:29.386Z,24.5
2022-09-05T12:16:30.293Z,24.5
2022-09-05T12:18:25.698Z,24.5
2022-09-05T12:22:30.053Z,24.5
2022-09-05T12:25:15.892Z,24.5
2022-09-05T12:30:36.312Z,24.7
2022-09-05T12:38:44.785Z,24.7
2022-09-05T12:40:27.689Z,24.7
2022-09-05T12:40:58.672Z,24.7
2022-09-05T12:42:37.206Z,24.7
2022-09-05T12:44:40.721Z,24.7
2022-09-05T12:46:30.426Z,24.7
2022-09-05T12:48:38.769Z,24.7
2022-09-05T12:50:29.799Z,24.8
2022-09-05T12:54:33.012Z,24.8
2022-09-05T12:57:13.944Z,24.8
2022-09-05T13:01:19.028Z,24.9
2022-09-05T13:03:00.227Z,24.9
2022-09-05T13:06:26.998Z,24.9
2022-09-05T13:14:51.629Z,25
2022-09-05T13:14:51.914Z,25
2022-09-05T13:16:30.292Z,25
2022-09-05T13:18:26.947Z,25
2022-09-05T13:20:29.564Z,25
2022-09-05T13:24:28.197Z,25
2022-09-05T13:28:30.088Z,25.1
2022-09-05T13:31:26.210Z,25
2022-09-05T13:37:57.326Z,25
2022-09-05T13:38:08.977Z,25.1
2022-09-05T13:38:38.141Z,25.1
2022-09-05T13:42:26.962Z,25.1
2022-09-05T13:44:29.637Z,25.2
2022-09-05T13:48:29.345Z,25.4
2022-09-05T13:52:28.908Z,25.3
2022-09-05T13:54:25.543Z,25.3
2022-09-05T13:58:29.430Z,25.2
2022-09-05T14:00:28.708Z,25.2
2022-09-05T14:06:45.339Z,25
2022-09-05T14:10:30.204Z,25.1
2022-09-05T14:12:29.696Z,25.2
2022-09-05T14:18:25.717Z,25.2
2022-09-05T14:20:29.054Z,25.2
2022-09-05T14:24:27.743Z,25.2
2022-09-05T14:26:30.207Z,25.2
2022-09-05T14:28:30.216Z,25.2
2022-09-05T14:30:47.705Z,25.2
2022-09-05T14:36:09.417Z,25.2
2022-09-05T14:37:47.936Z,25.2
2022-09-05T14:38:30.808Z,25.2
2022-09-05T14:40:32.340Z,25.2
2022-09-05T14:42:27.914Z,25.2
2022-09-05T14:44:30.214Z,25.2
2022-09-05T14:46:30.312Z,25.2
2022-09-05T14:48:28.681Z,25.2
2022-09-05T15:00:22.841Z,25.2
2022-09-05T15:02:40.404Z,25.2
2022-09-05T15:02:47.617Z,25.2
2022-09-05T15:06:28.241Z,25.2
2022-09-05T15:11:15.274Z,25.1
2022-09-05T15:11:15.304Z,25.1
2022-09-05T15:12:31.142Z,25.1
2022-09-05T15:14:30.463Z,25
2022-09-05T15:16:29.093Z,25
2022-09-05T15:18:30.176Z,25
2022-09-05T15:20:29.609Z,24.9
2022-09-05T15:22:30.378Z,24.9
2022-09-05T15:24:25.653Z,24.9
2022-09-05T15:30:35.617Z,24.8
2022-09-05T15:34:30.092Z,24.8
2022-09-05T15:36:28.845Z,24.9
2022-09-05T15:38:29.416Z,24.9
2022-09-05T15:40:30.491Z,24.9
2022-09-05T15:42:30.462Z,24.9
2022-09-05T15:46:35.799Z,24.8
2022-09-05T15:48:33.891Z,24.8
2022-09-05T15:50:29.431Z,24.7
2022-09-05T15:52:29.581Z,24.7
2022-09-05T15:54:36.063Z,24.7
2022-09-05T15:56:30.294Z,24.7
2022-09-05T16:00:28.791Z,24.6
2022-09-05T16:12:27.837Z,24.7
2022-09-05T16:14:30.577Z,24.6
2022-09-05T16:19:36.259Z,24.6
2022-09-05T16:23:12.480Z,24.7
2022-09-05T16:23:21.717Z,24.7
2022-09-05T16:23:22.495Z,24.7
2022-09-05T16:24:40.175Z,24.7
2022-09-05T16:26:30.265Z,24.6
2022-09-05T16:30:28.847Z,24.6
2022-09-05T16:32:30.043Z,24.6
2022-09-05T16:36:29.221Z,24.6
2022-09-05T16:38:33.143Z,24.5
2022-09-05T16:40:30.473Z,24.5
2022-09-05T16:42:37.436Z,24.4
2022-09-05T16:44:29.619Z,24.4
2022-09-05T16:46:30.418Z,24.4
2022-09-05T16:48:29.234Z,24.4
2022-09-05T16:50:34.378Z,24.3
2022-09-05T16:52:30.294Z,24.3
2022-09-05T16:54:28.646Z,24.3
2022-09-05T16:56:30.243Z,24.3
2022-09-05T16:58:29.539Z,24.2
2022-09-05T17:00:29.393Z,24.2
2022-09-05T17:02:29.449Z,24.2
2022-09-05T17:04:29.872Z,24.2
2022-09-05T17:06:29.142Z,24.2
2022-09-05T17:08:29.915Z,24.1
2022-09-05T17:10:30.297Z,24.1
2022-09-05T17:12:30.352Z,24.1
2022-09-05T17:14:29.435Z,24.1
2022-09-05T17:18:27.916Z,24
2022-09-05T17:20:29.768Z,24
2022-09-05T17:22:39.938Z,24
2022-09-05T17:28:09.256Z,24
2022-09-05T17:41:12.445Z,23.8
2022-09-05T17:43:12.149Z,23.8
2022-09-05T17:45:13.885Z,23.7
2022-09-05T17:47:14.546Z,23.7
2022-09-05T17:49:19.163Z,23.6
2022-09-05T17:51:12.602Z,23.7
2022-09-05T17:55:13.052Z,23.5
2022-09-05T17:57:10.869Z,23.4
2022-09-05T17:59:13.138Z,23.4
2022-09-05T18:01:13.150Z,23.3
2022-09-05T18:03:11.981Z,23.2
2022-09-05T18:05:11.372Z,23.2
2022-09-05T18:07:09.949Z,23.2
2022-09-05T18:09:09.966Z,23.3
2022-09-05T18:11:14.037Z,23.2
2022-09-05T18:13:32.103Z,23.3
2022-09-05T18:15:12.834Z,23.3
2022-09-05T18:17:35.713Z,23.2
2022-09-05T18:19:29.308Z,23.2
2022-09-05T18:21:21.966Z,23.2
2022-09-05T18:23:15.845Z,23.2
2022-09-05T18:25:14.009Z,23.1
2022-09-05T18:27:11.405Z,23.1
2022-09-05T18:31:10.481Z,22.8
2022-09-05T18:33:39.762Z,22.7
2022-09-05T18:35:13.201Z,22.7
2022-09-05T18:37:10.885Z,22.6
2022-09-05T18:39:07.844Z,22.6
2022-09-05T18:41:12.300Z,22.6
2022-09-05T18:45:14.997Z,22.6
2022-09-05T18:47:21.242Z,22.6
2022-09-05T18:49:24.931Z,22.5
2022-09-05T18:51:12.989Z,22.6
2022-09-05T18:53:12.914Z,22.5
2022-09-05T18:55:28.033Z,22.4
2022-09-05T18:57:15.337Z,22.3
2022-09-05T18:59:11.064Z,22.3
2022-09-05T19:01:11.135Z,22.3
2022-09-05T19:03:10.513Z,22.2
2022-09-05T19:05:15.748Z,22.2
2022-09-05T19:07:08.612Z,22.2
2022-09-05T19:09:11.609Z,22.1
2022-09-05T19:11:28.555Z,22.1
2022-09-05T19:13:09.941Z,22.1
2022-09-05T19:15:12.758Z,22.1
2022-09-05T19:19:08.769Z,21.9
2022-09-05T19:21:11.750Z,21.9
2022-09-05T19:23:13.385Z,21.8
2022-09-05T19:25:11.307Z,21.8
2022-09-05T19:27:58.761Z,21.8
2022-09-05T19:32:54.732Z,21.8
2022-09-05T19:36:47.754Z,21.8
2022-09-05T19:36:47.905Z,21.7
2022-09-05T19:37:01.823Z,21.7
2022-09-05T19:37:25.779Z,21.7
2022-09-05T19:40:36.590Z,21.6
2022-09-05T19:44:11.139Z,21.5
2022-09-05T19:47:32.270Z,21.4
2022-09-05T19:47:32.784Z,21.3
2022-09-05T19:47:54.972Z,21.5
2022-09-05T19:49:11.665Z,21.2
2022-09-05T19:51:16.660Z,21.2
2022-09-05T19:53:12.633Z,21.2
2022-09-05T19:55:08.601Z,21.2
2022-09-05T19:57:10.959Z,21.2
2022-09-05T19:59:11.844Z,21.1
2022-09-05T20:01:11.091Z,21.1
2022-09-05T20:03:12.673Z,21.1
2022-09-05T20:05:09.654Z,21.1
2022-09-05T20:07:13.277Z,20.9
2022-09-05T20:09:10.076Z,21
2022-09-05T20:11:10.215Z,20.9
2022-09-05T20:13:11.899Z,20.8
2022-09-05T20:15:12.235Z,20.7
2022-09-05T20:17:12.843Z,20.7
2022-09-05T20:19:10.091Z,20.6
2022-09-05T20:21:10.936Z,20.6
2022-09-05T20:23:10.645Z,20.5
2022-09-05T20:25:10.038Z,20.6
2022-09-05T20:27:11.089Z,20.6
2022-09-05T20:29:08.673Z,20.6
2022-09-05T20:31:11.947Z,20.6
2022-09-05T20:33:13.104Z,20.6
2022-09-05T20:36:18.422Z,20.5
2022-09-05T20:41:55.916Z,20.6
2022-09-05T20:43:13.029Z,20.7
2022-09-05T20:43:13.173Z,20.6
2022-09-05T20:43:34.295Z,20.6
2022-09-05T20:45:13.538Z,20.6
2022-09-05T20:48:31.767Z,20.6
2022-09-05T20:52:51.784Z,20.6
2022-09-05T20:54:12.378Z,20.5
2022-09-05T20:54:23.880Z,20.6
2022-09-05T20:55:16.066Z,20.5
2022-09-05T20:57:11.941Z,20.4
2022-09-05T20:59:10.984Z,20.4
2022-09-05T21:01:20.738Z,20.6
2022-09-05T21:03:15.808Z,20.5
2022-09-05T21:05:20.486Z,20.4
2022-09-05T21:07:13.721Z,20.4
2022-09-05T21:09:11.025Z,20.3
2022-09-05T21:11:10.995Z,20.4
2022-09-05T21:13:11.341Z,20.3
2022-09-05T21:15:20.526Z,20.3
2022-09-05T21:17:13.479Z,20.4
2022-09-05T21:19:09.676Z,20.4
2022-09-05T21:21:28.202Z,20.3
2022-09-05T21:23:13.921Z,20.1
2022-09-05T21:25:10.444Z,20
2022-09-05T21:27:10.835Z,19.9
2022-09-05T21:29:13.411Z,19.8
2022-09-05T21:31:15.128Z,19.8
2022-09-05T21:33:16.032Z,19.8
2022-09-05T21:35:17.423Z,19.8
2022-09-05T21:37:11.594Z,19.9
2022-09-05T21:39:12.949Z,19.9
2022-09-05T21:41:14.344Z,19.8
2022-09-05T21:44:29.508Z,19.7
2022-09-05T21:47:37.287Z,19.6
2022-09-05T21:47:45.351Z,19.6
2022-09-05T21:49:10.086Z,19.6
2022-09-05T21:51:13.240Z,19.6
2022-09-05T21:53:49.647Z,19.6
2022-09-05T21:58:02.161Z,19.6
2022-09-05T21:59:23.003Z,19.7
2022-09-05T21:59:23.426Z,19.6
2022-09-05T22:01:12.776Z,19.5
2022-09-05T22:03:12.007Z,19.5
2022-09-05T22:05:12.628Z,19.5
2022-09-05T22:07:13.282Z,19.4
2022-09-05T22:09:13.511Z,19.3
2022-09-05T22:11:13.647Z,19.2
2022-09-05T22:13:13.685Z,19.2
2022-09-05T22:15:26.973Z,19.2
2022-09-05T22:17:09.693Z,19.3
2022-09-05T22:19:11.877Z,19.3
2022-09-05T22:21:32.353Z,19.3
2022-09-05T22:23:12.284Z,19.3
2022-09-05T22:25:10.016Z,19.3
2022-09-05T22:27:13.293Z,19.3
2022-09-05T22:29:12.718Z,19.2
2022-09-05T22:31:13.054Z,19.3
2022-09-05T22:33:13.308Z,19.2
2022-09-05T22:35:28.154Z,19.3
2022-09-05T22:37:12.729Z,19.3
2022-09-05T22:39:11.451Z,19.3
2022-09-05T22:41:08.378Z,19.3
2022-09-05T22:43:14.301Z,19.3
2022-09-05T22:45:14.445Z,19.3
2022-09-05T22:47:13.331Z,19.2
2022-09-05T22:49:11.260Z,19.2
2022-09-05T22:51:10.298Z,19.2
2022-09-05T22:53:11.031Z,19.1
2022-09-05T22:55:12.727Z,19.2
2022-09-05T22:57:11.645Z,19.2
2022-09-05T22:59:11.592Z,19.1
2022-09-05T23:01:12.953Z,19.1
2022-09-05T23:03:13.658Z,19
2022-09-05T23:05:10.505Z,19
2022-09-05T23:07:08.712Z,19
2022-09-05T23:09:11.520Z,19
2022-09-05T23:11:13.082Z,19
2022-09-05T23:13:11.537Z,19
2022-09-05T23:15:12.760Z,19
2022-09-05T23:17:10.021Z,18.9
2022-09-05T23:19:11.341Z,18.9
2022-09-05T23:21:10.233Z,18.9
2022-09-05T23:23:12.905Z,18.8
2022-09-05T23:25:12.210Z,18.8
2022-09-05T23:27:10.751Z,18.8
2022-09-05T23:29:13.429Z,18.7
2022-09-05T23:31:09.813Z,18.8
2022-09-05T23:33:10.956Z,18.7
2022-09-05T23:35:12.005Z,18.7
2022-09-05T23:37:11.910Z,18.6
2022-09-05T23:39:10.191Z,18.5
2022-09-05T23:41:09.986Z,18.5
2022-09-05T23:43:12.493Z,18.5
2022-09-05T23:45:11.370Z,18.5
2022-09-05T23:47:12.822Z,18.5
2022-09-05T23:49:11.378Z,18.5
2022-09-05T23:51:08.706Z,18.5
2022-09-05T23:53:11.542Z,18.4
2022-09-05T23:55:09.996Z,18.4
2022-09-05T23:57:10.294Z,18.4
2022-09-05T23:59:10.214Z,18.4
